Terminal Aerodrome Forecast
Issued by NWS

Home | Current Version | Previous Version | Text Only | Print | Product List | Glossary On
Versions: 1 2 3 4 5 6 7 8 9 10 11 12 13 14 15 16 17 18 19 20 21 22 23 24 25 26
000
FTUS46 KOTX 230534
TAFCOE
TAF
KCOE 230534Z 2306/2406 11003KT P6SM FEW170
     FM231500 14006KT P6SM FEW250
     FM231800 18008KT P6SM FEW060 FEW250
     FM232300 21010G17KT P6SM SCT250
     FM240300 19010KT P6SM FEW100
     FM240500 22018G30KT P6SM BKN090=

USA.gov is the U.S. government's official web portal to all federal, state and local government web resources and services.